sensor_id;sensor_type;location;lat;lon;timestamp;temperature;humidity
21807;DHT22;11065;50.786;7.840;2022-10-31T00:00:57;14.10;50.00
21807;DHT22;11065;50.786;7.840;2022-10-31T00:03:24;14.10;50.00
21807;DHT22;11065;50.786;7.840;2022-10-31T00:05:53;14.10;50.10
21807;DHT22;11065;50.786;7.840;2022-10-31T00:08:19;14.00;50.00
21807;DHT22;11065;50.786;7.840;2022-10-31T00:10:46;14.00;50.10
21807;DHT22;11065;50.786;7.840;2022-10-31T00:13:14;14.00;50.10
21807;DHT22;11065;50.786;7.840;2022-10-31T00:15:41;14.00;50.20
21807;DHT22;11065;50.786;7.840;2022-10-31T00:18:09;13.90;50.20
21807;DHT22;11065;50.786;7.840;2022-10-31T00:20:36;13.90;50.20
21807;DHT22;11065;50.786;7.840;2022-10-31T00:23:04;13.90;50.20
21807;DHT22;11065;50.786;7.840;2022-10-31T00:25:36;13.90;50.30
21807;DHT22;11065;50.786;7.840;2022-10-31T00:28:04;13.80;50.40
21807;DHT22;11065;50.786;7.840;2022-10-31T00:30:33;13.80;50.40
21807;DHT22;11065;50.786;7.840;2022-10-31T00:33:03;13.80;50.50
21807;DHT22;11065;50.786;7.840;2022-10-31T00:35:31;13.70;50.60
21807;DHT22;11065;50.786;7.840;2022-10-31T00:37:58;13.70;50.60
21807;DHT22;11065;50.786;7.840;2022-10-31T00:40:24;13.70;50.70
21807;DHT22;11065;50.786;7.840;2022-10-31T00:42:52;13.70;50.70
21807;DHT22;11065;50.786;7.840;2022-10-31T00:45:18;13.60;50.70
21807;DHT22;11065;50.786;7.840;2022-10-31T00:47:45;13.60;50.70
21807;DHT22;11065;50.786;7.840;2022-10-31T00:50:12;13.60;50.80
21807;DHT22;11065;50.786;7.840;2022-10-31T00:52:39;13.60;50.90
21807;DHT22;11065;50.786;7.840;2022-10-31T00:55:06;13.60;50.90
21807;DHT22;11065;50.786;7.840;2022-10-31T00:57:33;13.60;51.00
21807;DHT22;11065;50.786;7.840;2022-10-31T01:00:00;13.60;51.00
21807;DHT22;11065;50.786;7.840;2022-10-31T01:02:27;13.50;51.00
21807;DHT22;11065;50.786;7.840;2022-10-31T01:04:54;13.50;51.00
21807;DHT22;11065;50.786;7.840;2022-10-31T01:07:21;13.50;51.00
21807;DHT22;11065;50.786;7.840;2022-10-31T01:09:48;13.50;51.10
21807;DHT22;11065;50.786;7.840;2022-10-31T01:12:14;13.50;51.10
21807;DHT22;11065;50.786;7.840;2022-10-31T01:14:45;13.50;51.20
21807;DHT22;11065;50.786;7.840;2022-10-31T01:17:13;13.40;51.40
21807;DHT22;11065;50.786;7.840;2022-10-31T01:19:40;13.40;51.30
21807;DHT22;11065;50.786;7.840;2022-10-31T01:22:07;13.40;51.30
21807;DHT22;11065;50.786;7.840;2022-10-31T01:24:33;13.40;51.30
21807;DHT22;11065;50.786;7.840;2022-10-31T01:27:01;13.40;51.40
21807;DHT22;11065;50.786;7.840;2022-10-31T01:29:32;13.40;51.50
21807;DHT22;11065;50.786;7.840;2022-10-31T01:31:58;13.40;51.50
21807;DHT22;11065;50.786;7.840;2022-10-31T01:34:25;13.40;51.60
21807;DHT22;11065;50.786;7.840;2022-10-31T01:36:52;13.30;52.10
21807;DHT22;11065;50.786;7.840;2022-10-31T01:39:20;13.30;51.70
21807;DHT22;11065;50.786;7.840;2022-10-31T01:41:52;13.30;51.80
21807;DHT22;11065;50.786;7.840;2022-10-31T01:47:05;13.30;51.80
21807;DHT22;11065;50.786;7.840;2022-10-31T01:49:52;13.30;52.00
21807;DHT22;11065;50.786;7.840;2022-10-31T01:52:25;13.30;52.10
21807;DHT22;11065;50.786;7.840;2022-10-31T01:57:43;13.30;52.50
21807;DHT22;11065;50.786;7.840;2022-10-31T02:00:12;13.30;52.10
21807;DHT22;11065;50.786;7.840;2022-10-31T02:02:38;13.30;52.10
21807;DHT22;11065;50.786;7.840;2022-10-31T02:05:09;13.30;52.10
21807;DHT22;11065;50.786;7.840;2022-10-31T02:07:41;13.30;52.20
21807;DHT22;11065;50.786;7.840;2022-10-31T02:10:08;13.30;52.20
21807;DHT22;11065;50.786;7.840;2022-10-31T02:12:35;13.30;52.10
21807;DHT22;11065;50.786;7.840;2022-10-31T02:15:06;13.30;52.10
21807;DHT22;11065;50.786;7.840;2022-10-31T02:17:33;13.30;52.10
21807;DHT22;11065;50.786;7.840;2022-10-31T02:20:20;13.30;52.10
21807;DHT22;11065;50.786;7.840;2022-10-31T02:23:08;13.30;52.80
21807;DHT22;11065;50.786;7.840;2022-10-31T02:25:55;13.20;52.50
21807;DHT22;11065;50.786;7.840;2022-10-31T02:33:59;13.20;52.70
21807;DHT22;11065;50.786;7.840;2022-10-31T02:36:46;13.20;52.60
21807;DHT22;11065;50.786;7.840;2022-10-31T02:44:30;13.20;52.80
21807;DHT22;11065;50.786;7.840;2022-10-31T02:47:22;13.10;52.60
21807;DHT22;11065;50.786;7.840;2022-10-31T02:49:55;13.10;52.50
21807;DHT22;11065;50.786;7.840;2022-10-31T02:52:28;13.10;52.50
21807;DHT22;11065;50.786;7.840;2022-10-31T02:55:13;13.10;52.60
21807;DHT22;11065;50.786;7.840;2022-10-31T03:00:37;13.10;52.60
21807;DHT22;11065;50.786;7.840;2022-10-31T03:03:20;13.10;52.70
21807;DHT22;11065;50.786;7.840;2022-10-31T03:05:59;13.00;52.80
21807;DHT22;11065;50.786;7.840;2022-10-31T03:09:38;13.00;52.80
21807;DHT22;11065;50.786;7.840;2022-10-31T03:11:32;13.00;52.90
21807;DHT22;11065;50.786;7.840;2022-10-31T03:14:31;13.00;52.70
21807;DHT22;11065;50.786;7.840;2022-10-31T03:17:05;13.00;53.30
21807;DHT22;11065;50.786;7.840;2022-10-31T03:19:42;13.00;52.90
21807;DHT22;11065;50.786;7.840;2022-10-31T03:22:25;13.00;53.00
21807;DHT22;11065;50.786;7.840;2022-10-31T03:24:55;13.00;53.00
21807;DHT22;11065;50.786;7.840;2022-10-31T03:27:25;13.00;52.90
21807;DHT22;11065;50.786;7.840;2022-10-31T03:29:55;12.90;52.80
21807;DHT22;11065;50.786;7.840;2022-10-31T03:32:31;12.90;52.90
21807;DHT22;11065;50.786;7.840;2022-10-31T03:35:01;12.90;53.10
21807;DHT22;11065;50.786;7.840;2022-10-31T03:37:31;12.90;52.90
21807;DHT22;11065;50.786;7.840;2022-10-31T03:40:00;12.90;53.00
21807;DHT22;11065;50.786;7.840;2022-10-31T03:42:30;12.80;53.00
21807;DHT22;11065;50.786;7.840;2022-10-31T03:45:13;12.90;53.00
21807;DHT22;11065;50.786;7.840;2022-10-31T03:47:43;12.90;53.10
21807;DHT22;11065;50.786;7.840;2022-10-31T03:50:13;12.80;53.00
21807;DHT22;11065;50.786;7.840;2022-10-31T03:58:06;12.80;53.20
21807;DHT22;11065;50.786;7.840;2022-10-31T04:00:37;12.80;53.10
21807;DHT22;11065;50.786;7.840;2022-10-31T04:03:10;12.70;53.20
21807;DHT22;11065;50.786;7.840;2022-10-31T04:05:43;12.70;53.20
21807;DHT22;11065;50.786;7.840;2022-10-31T04:08:15;12.70;53.20
21807;DHT22;11065;50.786;7.840;2022-10-31T04:10:46;12.70;53.30
21807;DHT22;11065;50.786;7.840;2022-10-31T04:13:22;12.70;53.30
21807;DHT22;11065;50.786;7.840;2022-10-31T04:15:58;12.70;53.50
21807;DHT22;11065;50.786;7.840;2022-10-31T04:18:26;12.70;53.20
21807;DHT22;11065;50.786;7.840;2022-10-31T04:21:01;12.70;53.30
21807;DHT22;11065;50.786;7.840;2022-10-31T04:23:28;12.70;53.60
21807;DHT22;11065;50.786;7.840;2022-10-31T04:25:56;12.60;53.30
21807;DHT22;11065;50.786;7.840;2022-10-31T04:28:22;12.60;53.30
21807;DHT22;11065;50.786;7.840;2022-10-31T04:30:50;12.60;53.30
21807;DHT22;11065;50.786;7.840;2022-10-31T04:33:17;12.60;53.30
21807;DHT22;11065;50.786;7.840;2022-10-31T04:35:47;12.60;53.30
21807;DHT22;11065;50.786;7.840;2022-10-31T04:38:14;12.60;53.40
21807;DHT22;11065;50.786;7.840;2022-10-31T04:40:42;12.50;53.40
21807;DHT22;11065;50.786;7.840;2022-10-31T04:43:18;12.50;53.40
21807;DHT22;11065;50.786;7.840;2022-10-31T04:45:45;12.50;53.40
21807;DHT22;11065;50.786;7.840;2022-10-31T04:48:13;12.50;53.50
21807;DHT22;11065;50.786;7.840;2022-10-31T04:50:43;12.50;53.90
21807;DHT22;11065;50.786;7.840;2022-10-31T04:53:12;12.40;53.50
21807;DHT22;11065;50.786;7.840;2022-10-31T04:55:59;12.40;53.50
21807;DHT22;11065;50.786;7.840;2022-10-31T04:58:35;12.40;53.60
21807;DHT22;11065;50.786;7.840;2022-10-31T05:01:05;12.30;53.50
21807;DHT22;11065;50.786;7.840;2022-10-31T05:03:32;12.30;53.50
21807;DHT22;11065;50.786;7.840;2022-10-31T05:05:59;12.30;53.60
21807;DHT22;11065;50.786;7.840;2022-10-31T05:08:26;12.30;53.70
21807;DHT22;11065;50.786;7.840;2022-10-31T05:10:54;12.20;53.70
21807;DHT22;11065;50.786;7.840;2022-10-31T05:13:26;12.20;53.80
21807;DHT22;11065;50.786;7.840;2022-10-31T05:16:19;12.20;53.80
21807;DHT22;11065;50.786;7.840;2022-10-31T05:19:04;12.20;53.70
21807;DHT22;11065;50.786;7.840;2022-10-31T05:21:50;12.20;53.70
21807;DHT22;11065;50.786;7.840;2022-10-31T05:24:18;12.10;53.70
21807;DHT22;11065;50.786;7.840;2022-10-31T05:26:49;12.10;53.80
21807;DHT22;11065;50.786;7.840;2022-10-31T05:29:16;12.10;53.80
21807;DHT22;11065;50.786;7.840;2022-10-31T05:31:43;12.10;53.80
21807;DHT22;11065;50.786;7.840;2022-10-31T05:34:23;12.10;53.90
21807;DHT22;11065;50.786;7.840;2022-10-31T05:37:25;12.10;53.90
21807;DHT22;11065;50.786;7.840;2022-10-31T05:39:51;12.10;53.80
21807;DHT22;11065;50.786;7.840;2022-10-31T05:42:18;12.00;53.80
21807;DHT22;11065;50.786;7.840;2022-10-31T05:44:47;12.00;53.80
21807;DHT22;11065;50.786;7.840;2022-10-31T05:47:23;12.00;53.90
21807;DHT22;11065;50.786;7.840;2022-10-31T05:50:09;12.00;53.90
21807;DHT22;11065;50.786;7.840;2022-10-31T05:53:04;12.00;53.90
21807;DHT22;11065;50.786;7.840;2022-10-31T05:55:36;11.90;54.10
21807;DHT22;11065;50.786;7.840;2022-10-31T05:58:10;11.90;53.90
21807;DHT22;11065;50.786;7.840;2022-10-31T06:00:39;11.90;53.90
21807;DHT22;11065;50.786;7.840;2022-10-31T06:03:09;11.90;53.90
21807;DHT22;11065;50.786;7.840;2022-10-31T06:05:41;11.80;54.00
21807;DHT22;11065;50.786;7.840;2022-10-31T06:08:08;11.80;54.00
21807;DHT22;11065;50.786;7.840;2022-10-31T06:10:35;11.80;54.00
21807;DHT22;11065;50.786;7.840;2022-10-31T06:13:02;11.80;54.00
21807;DHT22;11065;50.786;7.840;2022-10-31T06:15:41;11.70;54.00
21807;DHT22;11065;50.786;7.840;2022-10-31T06:18:08;11.70;54.00
21807;DHT22;11065;50.786;7.840;2022-10-31T06:20:44;11.70;54.00
21807;DHT22;11065;50.786;7.840;2022-10-31T06:23:11;11.70;54.10
21807;DHT22;11065;50.786;7.840;2022-10-31T06:25:40;11.70;54.10
21807;DHT22;11065;50.786;7.840;2022-10-31T06:28:07;11.70;54.20
21807;DHT22;11065;50.786;7.840;2022-10-31T06:30:45;11.60;54.20
21807;DHT22;11065;50.786;7.840;2022-10-31T06:33:12;11.60;54.20
21807;DHT22;11065;50.786;7.840;2022-10-31T06:35:46;11.60;54.20
21807;DHT22;11065;50.786;7.840;2022-10-31T06:38:14;11.60;54.30
21807;DHT22;11065;50.786;7.840;2022-10-31T06:40:41;11.60;54.30
21807;DHT22;11065;50.786;7.840;2022-10-31T06:43:24;11.60;54.30
21807;DHT22;11065;50.786;7.840;2022-10-31T06:46:06;11.60;54.40
21807;DHT22;11065;50.786;7.840;2022-10-31T06:48:53;11.60;54.50
21807;DHT22;11065;50.786;7.840;2022-10-31T06:51:31;11.60;54.40
21807;DHT22;11065;50.786;7.840;2022-10-31T06:53:58;11.60;54.50
21807;DHT22;11065;50.786;7.840;2022-10-31T06:56:25;11.60;54.60
21807;DHT22;11065;50.786;7.840;2022-10-31T06:58:54;11.60;54.70
21807;DHT22;11065;50.786;7.840;2022-10-31T07:01:41;11.60;54.70
21807;DHT22;11065;50.786;7.840;2022-10-31T07:04:11;11.60;54.70
21807;DHT22;11065;50.786;7.840;2022-10-31T07:06:38;11.60;54.80
21807;DHT22;11065;50.786;7.840;2022-10-31T07:09:05;11.70;54.90
21807;DHT22;11065;50.786;7.840;2022-10-31T07:11:34;11.70;54.90
21807;DHT22;11065;50.786;7.840;2022-10-31T07:14:00;11.70;55.00
21807;DHT22;11065;50.786;7.840;2022-10-31T07:16:27;11.80;55.10
21807;DHT22;11065;50.786;7.840;2022-10-31T07:18:54;11.80;55.20
21807;DHT22;11065;50.786;7.840;2022-10-31T07:21:21;11.80;55.20
21807;DHT22;11065;50.786;7.840;2022-10-31T07:23:48;11.90;55.30
21807;DHT22;11065;50.786;7.840;2022-10-31T07:26:35;12.00;55.40
21807;DHT22;11065;50.786;7.840;2022-10-31T07:29:02;12.00;55.30
21807;DHT22;11065;50.786;7.840;2022-10-31T07:31:29;12.10;55.40
21807;DHT22;11065;50.786;7.840;2022-10-31T07:34:02;12.20;55.60
21807;DHT22;11065;50.786;7.840;2022-10-31T07:37:01;12.20;55.60
21807;DHT22;11065;50.786;7.840;2022-10-31T07:39:29;12.30;55.60
21807;DHT22;11065;50.786;7.840;2022-10-31T07:41:58;12.40;55.80
21807;DHT22;11065;50.786;7.840;2022-10-31T07:44:25;12.50;55.90
21807;DHT22;11065;50.786;7.840;2022-10-31T07:47:14;12.60;55.90
21807;DHT22;11065;50.786;7.840;2022-10-31T07:50:00;12.70;55.80
21807;DHT22;11065;50.786;7.840;2022-10-31T07:52:45;12.80;55.80
21807;DHT22;11065;50.786;7.840;2022-10-31T07:55:42;12.90;55.80
21807;DHT22;11065;50.786;7.840;2022-10-31T07:58:16;13.00;55.80
21807;DHT22;11065;50.786;7.840;2022-10-31T08:00:46;13.10;55.80
21807;DHT22;11065;50.786;7.840;2022-10-31T08:03:18;13.20;55.80
21807;DHT22;11065;50.786;7.840;2022-10-31T08:06:04;13.20;55.70
21807;DHT22;11065;50.786;7.840;2022-10-31T08:09:09;13.30;55.70
21807;DHT22;11065;50.786;7.840;2022-10-31T08:11:36;13.40;55.80
21807;DHT22;11065;50.786;7.840;2022-10-31T08:14:03;13.50;55.90
21807;DHT22;11065;50.786;7.840;2022-10-31T08:16:30;13.50;55.90
21807;DHT22;11065;50.786;7.840;2022-10-31T08:19:00;13.60;56.00
21807;DHT22;11065;50.786;7.840;2022-10-31T08:21:28;13.60;56.00
21807;DHT22;11065;50.786;7.840;2022-10-31T08:23:56;13.70;56.00
21807;DHT22;11065;50.786;7.840;2022-10-31T08:26:26;13.80;56.00
21807;DHT22;11065;50.786;7.840;2022-10-31T08:28:54;13.90;56.10
21807;DHT22;11065;50.786;7.840;2022-10-31T08:31:24;13.90;56.00
21807;DHT22;11065;50.786;7.840;2022-10-31T08:34:17;14.00;56.00
21807;DHT22;11065;50.786;7.840;2022-10-31T08:37:04;14.20;56.20
21807;DHT22;11065;50.786;7.840;2022-10-31T08:39:39;14.30;56.30
21807;DHT22;11065;50.786;7.840;2022-10-31T08:42:06;14.50;56.50
21807;DHT22;11065;50.786;7.840;2022-10-31T08:44:33;14.70;56.70
21807;DHT22;11065;50.786;7.840;2022-10-31T08:46:59;14.80;56.80
21807;DHT22;11065;50.786;7.840;2022-10-31T08:49:26;15.10;56.70
21807;DHT22;11065;50.786;7.840;2022-10-31T08:51:53;15.30;56.80
21807;DHT22;11065;50.786;7.840;2022-10-31T08:54:20;15.50;56.90
21807;DHT22;11065;50.786;7.840;2022-10-31T08:56:56;15.80;57.10
21807;DHT22;11065;50.786;7.840;2022-10-31T08:59:33;16.20;57.20
21807;DHT22;11065;50.786;7.840;2022-10-31T09:02:17;16.60;57.20
21807;DHT22;11065;50.786;7.840;2022-10-31T09:04:44;17.10;57.20
21807;DHT22;11065;50.786;7.840;2022-10-31T09:07:11;17.50;56.70
21807;DHT22;11065;50.786;7.840;2022-10-31T09:09:46;17.80;56.20
21807;DHT22;11065;50.786;7.840;2022-10-31T09:12:13;18.20;56.10
21807;DHT22;11065;50.786;7.840;2022-10-31T09:14:46;18.60;55.90
21807;DHT22;11065;50.786;7.840;2022-10-31T09:17:30;19.00;55.70
21807;DHT22;11065;50.786;7.840;2022-10-31T09:20:17;19.40;55.50
21807;DHT22;11065;50.786;7.840;2022-10-31T09:22:44;19.90;55.20
21807;DHT22;11065;50.786;7.840;2022-10-31T09:25:12;20.20;54.70
21807;DHT22;11065;50.786;7.840;2022-10-31T09:27:40;20.60;54.30
21807;DHT22;11065;50.786;7.840;2022-10-31T09:30:07;20.90;53.90
21807;DHT22;11065;50.786;7.840;2022-10-31T09:32:34;21.20;53.50
21807;DHT22;11065;50.786;7.840;2022-10-31T09:35:02;21.40;53.10
21807;DHT22;11065;50.786;7.840;2022-10-31T09:37:31;21.60;52.50
21807;DHT22;11065;50.786;7.840;2022-10-31T09:39:59;21.80;52.20
21807;DHT22;11065;50.786;7.840;2022-10-31T09:42:56;22.00;51.90
21807;DHT22;11065;50.786;7.840;2022-10-31T09:51:31;22.50;50.50
21807;DHT22;11065;50.786;7.840;2022-10-31T09:54:46;22.70;50.10
21807;DHT22;11065;50.786;7.840;2022-10-31T09:57:21;22.80;49.50
21807;DHT22;11065;50.786;7.840;2022-10-31T09:59:49;22.80;50.00
21807;DHT22;11065;50.786;7.840;2022-10-31T10:02:57;22.80;50.00
21807;DHT22;11065;50.786;7.840;2022-10-31T10:05:34;22.80;49.20
21807;DHT22;11065;50.786;7.840;2022-10-31T10:11:16;22.80;49.70
21807;DHT22;11065;50.786;7.840;2022-10-31T10:14:21;22.90;49.60
21807;DHT22;11065;50.786;7.840;2022-10-31T10:22:47;23.20;50.30
21807;DHT22;11065;50.786;7.840;2022-10-31T10:28:13;23.70;50.30
21807;DHT22;11065;50.786;7.840;2022-10-31T10:30:46;24.00;49.60
21807;DHT22;11065;50.786;7.840;2022-10-31T10:35:57;24.50;49.60
21807;DHT22;11065;50.786;7.840;2022-10-31T10:38:27;24.70;49.50
21807;DHT22;11065;50.786;7.840;2022-10-31T10:40:55;24.90;49.50
21807;DHT22;11065;50.786;7.840;2022-10-31T10:43:31;25.10;49.30
21807;DHT22;11065;50.786;7.840;2022-10-31T10:46:16;25.30;48.80
21807;DHT22;11065;50.786;7.840;2022-10-31T10:54:59;25.90;48.80
21807;DHT22;11065;50.786;7.840;2022-10-31T10:57:34;26.30;48.70
21807;DHT22;11065;50.786;7.840;2022-10-31T11:00:23;26.50;48.80
21807;DHT22;11065;50.786;7.840;2022-10-31T11:02:50;26.80;47.50
21807;DHT22;11065;50.786;7.840;2022-10-31T11:05:28;26.90;48.10
21807;DHT22;11065;50.786;7.840;2022-10-31T11:07:56;27.10;47.50
21807;DHT22;11065;50.786;7.840;2022-10-31T11:10:23;27.30;47.40
21807;DHT22;11065;50.786;7.840;2022-10-31T11:13:22;27.40;46.90
21807;DHT22;11065;50.786;7.840;2022-10-31T11:16:02;27.50;45.80
21807;DHT22;11065;50.786;7.840;2022-10-31T11:18:34;27.60;45.70
21807;DHT22;11065;50.786;7.840;2022-10-31T11:21:04;27.60;46.10
21807;DHT22;11065;50.786;7.840;2022-10-31T11:23:32;27.60;45.80
21807;DHT22;11065;50.786;7.840;2022-10-31T11:26:01;27.60;45.90
21807;DHT22;11065;50.786;7.840;2022-10-31T11:28:30;27.60;45.40
21807;DHT22;11065;50.786;7.840;2022-10-31T11:31:00;27.70;45.30
21807;DHT22;11065;50.786;7.840;2022-10-31T11:36:00;27.70;44.80
21807;DHT22;11065;50.786;7.840;2022-10-31T11:38:35;27.80;45.00
21807;DHT22;11065;50.786;7.840;2022-10-31T11:41:30;27.90;44.60
21807;DHT22;11065;50.786;7.840;2022-10-31T11:44:02;27.90;44.00
21807;DHT22;11065;50.786;7.840;2022-10-31T11:49:01;27.90;43.80
21807;DHT22;11065;50.786;7.840;2022-10-31T11:51:33;27.80;44.00
21807;DHT22;11065;50.786;7.840;2022-10-31T11:54:01;27.80;43.70
21807;DHT22;11065;50.786;7.840;2022-10-31T11:56:40;27.70;43.70
21807;DHT22;11065;50.786;7.840;2022-10-31T11:59:37;27.60;43.10
21807;DHT22;11065;50.786;7.840;2022-10-31T12:02:17;27.50;43.20
21807;DHT22;11065;50.786;7.840;2022-10-31T12:05:02;27.40;43.10
21807;DHT22;11065;50.786;7.840;2022-10-31T12:07:31;27.30;43.40
21807;DHT22;11065;50.786;7.840;2022-10-31T12:09:57;27.30;43.60
21807;DHT22;11065;50.786;7.840;2022-10-31T12:15:36;27.40;43.30
21807;DHT22;11065;50.786;7.840;2022-10-31T12:18:37;27.50;43.20
21807;DHT22;11065;50.786;7.840;2022-10-31T12:21:27;27.50;43.20
21807;DHT22;11065;50.786;7.840;2022-10-31T12:24:09;27.50;42.90
21807;DHT22;11065;50.786;7.840;2022-10-31T12:35:18;27.40;42.50
21807;DHT22;11065;50.786;7.840;2022-10-31T12:49:19;26.80;42.00
21807;DHT22;11065;50.786;7.840;2022-10-31T12:57:39;26.40;42.10
21807;DHT22;11065;50.786;7.840;2022-10-31T13:00:17;26.40;42.00
21807;DHT22;11065;50.786;7.840;2022-10-31T13:03:20;26.30;42.00
21807;DHT22;11065;50.786;7.840;2022-10-31T13:05:57;26.10;41.70
21807;DHT22;11065;50.786;7.840;2022-10-31T13:08:30;26.00;42.10
21807;DHT22;11065;50.786;7.840;2022-10-31T13:13:48;25.80;41.70
21807;DHT22;11065;50.786;7.840;2022-10-31T13:16:22;25.70;41.70
21807;DHT22;11065;50.786;7.840;2022-10-31T13:18:55;25.60;41.90
21807;DHT22;11065;50.786;7.840;2022-10-31T13:21:32;25.50;42.10
21807;DHT22;11065;50.786;7.840;2022-10-31T13:24:02;25.40;42.20
21807;DHT22;11065;50.786;7.840;2022-10-31T13:26:47;25.30;42.30
21807;DHT22;11065;50.786;7.840;2022-10-31T13:29:26;25.10;42.30
21807;DHT22;11065;50.786;7.840;2022-10-31T13:32:00;25.10;42.50
21807;DHT22;11065;50.786;7.840;2022-10-31T13:34:30;25.00;42.70
21807;DHT22;11065;50.786;7.840;2022-10-31T13:40:14;24.70;42.90
21807;DHT22;11065;50.786;7.840;2022-10-31T13:45:19;24.50;43.00
21807;DHT22;11065;50.786;7.840;2022-10-31T13:53:14;24.30;43.20
21807;DHT22;11065;50.786;7.840;2022-10-31T13:55:47;24.20;43.10
21807;DHT22;11065;50.786;7.840;2022-10-31T13:58:21;24.10;43.70
21807;DHT22;11065;50.786;7.840;2022-10-31T14:01:19;24.00;43.20
21807;DHT22;11065;50.786;7.840;2022-10-31T14:03:57;23.90;43.50
21807;DHT22;11065;50.786;7.840;2022-10-31T14:09:32;23.80;43.60
21807;DHT22;11065;50.786;7.840;2022-10-31T14:12:07;23.80;43.70
21807;DHT22;11065;50.786;7.840;2022-10-31T14:14:43;23.70;43.70
21807;DHT22;11065;50.786;7.840;2022-10-31T14:17:35;23.60;43.50
21807;DHT22;11065;50.786;7.840;2022-10-31T14:22:39;23.50;43.50
21807;DHT22;11065;50.786;7.840;2022-10-31T14:25:44;23.50;43.60
21807;DHT22;11065;50.786;7.840;2022-10-31T14:28:33;23.30;43.60
21807;DHT22;11065;50.786;7.840;2022-10-31T14:31:00;23.30;43.70
21807;DHT22;11065;50.786;7.840;2022-10-31T14:33:31;23.20;43.70
21807;DHT22;11065;50.786;7.840;2022-10-31T14:36:00;23.10;43.80
21807;DHT22;11065;50.786;7.840;2022-10-31T14:38:47;23.00;43.90
21807;DHT22;11065;50.786;7.840;2022-10-31T14:41:46;23.00;44.20
21807;DHT22;11065;50.786;7.840;2022-10-31T14:44:26;22.90;44.30
21807;DHT22;11065;50.786;7.840;2022-10-31T14:50:14;22.70;44.40
21807;DHT22;11065;50.786;7.840;2022-10-31T14:52:48;22.70;44.30
21807;DHT22;11065;50.786;7.840;2022-10-31T14:55:18;22.60;44.90
21807;DHT22;11065;50.786;7.840;2022-10-31T14:57:50;22.60;44.60
21807;DHT22;11065;50.786;7.840;2022-10-31T15:00:23;22.50;44.60
21807;DHT22;11065;50.786;7.840;2022-10-31T15:03:03;22.50;45.30
21807;DHT22;11065;50.786;7.840;2022-10-31T15:05:33;22.50;44.90
21807;DHT22;11065;50.786;7.840;2022-10-31T15:08:01;22.50;45.00
21807;DHT22;11065;50.786;7.840;2022-10-31T15:10:32;22.40;45.00
21807;DHT22;11065;50.786;7.840;2022-10-31T15:13:10;22.40;45.30
21807;DHT22;11065;50.786;7.840;2022-10-31T15:15:37;22.40;45.50
21807;DHT22;11065;50.786;7.840;2022-10-31T15:18:05;22.30;45.40
21807;DHT22;11065;50.786;7.840;2022-10-31T15:20:38;22.40;45.40
21807;DHT22;11065;50.786;7.840;2022-10-31T15:23:19;22.30;45.50
21807;DHT22;11065;50.786;7.840;2022-10-31T15:25:47;22.30;45.40
21807;DHT22;11065;50.786;7.840;2022-10-31T15:28:23;22.30;45.30
21807;DHT22;11065;50.786;7.840;2022-10-31T15:30:52;22.20;45.50
21807;DHT22;11065;50.786;7.840;2022-10-31T15:33:45;22.10;45.70
21807;DHT22;11065;50.786;7.840;2022-10-31T15:36:24;22.10;45.70
21807;DHT22;11065;50.786;7.840;2022-10-31T15:38:57;22.00;45.70
21807;DHT22;11065;50.786;7.840;2022-10-31T15:41:31;21.90;45.60
21807;DHT22;11065;50.786;7.840;2022-10-31T15:44:14;21.70;45.70
21807;DHT22;11065;50.786;7.840;2022-10-31T15:46:41;21.60;45.80
21807;DHT22;11065;50.786;7.840;2022-10-31T15:52:19;21.50;46.40
21807;DHT22;11065;50.786;7.840;2022-10-31T15:54:51;21.40;46.00
21807;DHT22;11065;50.786;7.840;2022-10-31T15:57:18;21.30;46.10
21807;DHT22;11065;50.786;7.840;2022-10-31T15:59:48;21.10;46.10
21807;DHT22;11065;50.786;7.840;2022-10-31T16:02:20;21.00;46.30
21807;DHT22;11065;50.786;7.840;2022-10-31T16:07:17;20.90;46.30
21807;DHT22;11065;50.786;7.840;2022-10-31T16:09:51;20.80;46.40
21807;DHT22;11065;50.786;7.840;2022-10-31T16:12:19;20.60;46.50
21807;DHT22;11065;50.786;7.840;2022-10-31T16:14:52;20.50;46.50
21807;DHT22;11065;50.786;7.840;2022-10-31T16:17:21;20.40;46.60
21807;DHT22;11065;50.786;7.840;2022-10-31T16:20:02;20.30;46.70
21807;DHT22;11065;50.786;7.840;2022-10-31T16:22:37;20.20;47.20
21807;DHT22;11065;50.786;7.840;2022-10-31T16:25:13;20.10;47.00
21807;DHT22;11065;50.786;7.840;2022-10-31T16:27:48;20.00;47.00
21807;DHT22;11065;50.786;7.840;2022-10-31T16:33:23;19.80;47.40
21807;DHT22;11065;50.786;7.840;2022-10-31T16:35:51;19.70;47.30
21807;DHT22;11065;50.786;7.840;2022-10-31T16:38:30;19.60;47.10
21807;DHT22;11065;50.786;7.840;2022-10-31T16:40:56;19.50;47.20
21807;DHT22;11065;50.786;7.840;2022-10-31T16:43:23;19.40;47.40
21807;DHT22;11065;50.786;7.840;2022-10-31T16:45:51;19.40;47.50
21807;DHT22;11065;50.786;7.840;2022-10-31T16:48:20;19.30;47.70
21807;DHT22;11065;50.786;7.840;2022-10-31T16:50:49;19.20;47.80
21807;DHT22;11065;50.786;7.840;2022-10-31T16:53:16;19.20;47.90
21807;DHT22;11065;50.786;7.840;2022-10-31T16:55:57;19.10;47.90
21807;DHT22;11065;50.786;7.840;2022-10-31T16:58:26;19.00;48.00
21807;DHT22;11065;50.786;7.840;2022-10-31T17:00:54;19.00;48.10
21807;DHT22;11065;50.786;7.840;2022-10-31T17:03:21;18.90;48.10
21807;DHT22;11065;50.786;7.840;2022-10-31T17:05:48;18.80;48.20
21807;DHT22;11065;50.786;7.840;2022-10-31T17:08:15;18.80;48.30
21807;DHT22;11065;50.786;7.840;2022-10-31T17:10:42;18.70;48.40
21807;DHT22;11065;50.786;7.840;2022-10-31T17:13:15;18.60;48.50
21807;DHT22;11065;50.786;7.840;2022-10-31T17:15:46;18.50;48.70
21807;DHT22;11065;50.786;7.840;2022-10-31T17:18:15;18.50;48.80
21807;DHT22;11065;50.786;7.840;2022-10-31T17:20:42;18.40;48.90
21807;DHT22;11065;50.786;7.840;2022-10-31T17:23:13;18.30;48.90
21807;DHT22;11065;50.786;7.840;2022-10-31T17:25:41;18.30;49.10
21807;DHT22;11065;50.786;7.840;2022-10-31T17:28:11;18.20;49.00
21807;DHT22;11065;50.786;7.840;2022-10-31T17:30:42;18.20;49.20
21807;DHT22;11065;50.786;7.840;2022-10-31T17:33:11;18.10;49.30
21807;DHT22;11065;50.786;7.840;2022-10-31T17:35:38;18.00;49.20
21807;DHT22;11065;50.786;7.840;2022-10-31T17:38:05;18.00;49.20
21807;DHT22;11065;50.786;7.840;2022-10-31T17:40:32;17.90;49.30
21807;DHT22;11065;50.786;7.840;2022-10-31T17:42:59;17.80;49.40
21807;DHT22;11065;50.786;7.840;2022-10-31T17:45:26;17.80;49.50
21807;DHT22;11065;50.786;7.840;2022-10-31T17:47:53;17.70;49.50
21807;DHT22;11065;50.786;7.840;2022-10-31T17:50:22;17.60;49.60
21807;DHT22;11065;50.786;7.840;2022-10-31T17:52:50;17.60;49.80
21807;DHT22;11065;50.786;7.840;2022-10-31T17:55:17;17.50;49.80
21807;DHT22;11065;50.786;7.840;2022-10-31T17:57:44;17.50;49.90
21807;DHT22;11065;50.786;7.840;2022-10-31T18:00:14;17.40;49.90
21807;DHT22;11065;50.786;7.840;2022-10-31T18:02:41;17.40;50.10
21807;DHT22;11065;50.786;7.840;2022-10-31T18:05:09;17.30;50.00